• Join FlightAware (Why Join?)
  • Login
  • US Flag 
Rudolph Flight #1: Arrived! 
02:31PM EST


 

Airport Tracker/Info


-or-


 

Live Flight TrackerFlight Track Log ✈ JBU33 ✈ 09-Aug-2013 ✈ KBTV - KJFK

Flight Track Log - Related Links

Times and Time Zones

All times are in EDT time to prevent confusion due to time zone crossing. See the JBU33 flight status page for this flight to view local times or setup timezone preferences in your user account.

Time Position Orientation Groundspeed Altitude Reporting Facility
EDT Latitude Longitude Course Direction KTS MPH feet Rate Location/Type
01:23PM 44.4114 -73.1258 193° South 206 237 2,800  Level Boston Center
01:24PM 44.3572 -73.1456 195° South 233 268 5,300 2,820 Climbing Boston Center
01:25PM 44.2318 -73.2296 190° South  Level FlightAware Approximate
01:25PM 44.2819 -73.1767 196° South 269 310 8,400  Level Boston Center
01:26PM 44.1567 -73.2663 195° South  Level FlightAware Approximate
01:26PM 44.2044 -73.2103 197° South 292 336 11,300  Level Boston Center
01:27PM 44.0787 -73.2955 195° South  Level FlightAware Approximate
01:27PM 44.1189 -73.2469 197° South 316 364 13,300  Level Boston Center
01:28PM 44.0003 -73.3222 194° South  Level FlightAware Approximate
01:28PM 44.0269 -73.2861 197° South 333 383 15,000  Level Boston Center
01:29PM 43.9217 -73.3483 193° South  Level FlightAware Approximate
01:30PM 43.9369 -73.3222 196° South 333 383 15,000  Level Boston Center
01:31PM 43.8219 -73.3694 197° South 339 390 16,600 1,860 Climbing Boston Center
01:32PM 43.7281 -73.4111 198° South 347 399 18,700 1,800 Climbing Boston Center
01:33PM 43.6400 -73.4469 196° South 354 407 20,300 1,440 Climbing Boston Center
01:34PM 43.5419 -73.4856 196° South 365 420 22,000 1,260 Climbing Boston Center
01:35PM 43.4183 -73.5347 196° South 376 433 23,200 1,020 Climbing Boston Center
01:36PM 43.3181 -73.5786 198° South 381 438 24,100 900 Climbing Boston Center
01:37PM 43.2133 -73.6222 197° South 386 444 25,000 720 Climbing Boston Center
01:38PM 43.1067 -73.6600 194° South 386 444 25,600 540 Climbing Boston Center
01:39PM 43.0019 -73.7033 197° South 392 451 26,100 480 Climbing Boston Center
01:40PM 42.9142 -73.7356 195° South 399 459 26,600 960 Climbing Boston Center
01:41PM 42.7883 -73.7897 198° South 404 465 28,000 660 Climbing Boston Center
01:42PM 42.6694 -73.8067 186° South 409 471 28,000  Level Boston Center
01:43PM 42.5442 -73.8153 183° South 415 478 28,000  Level Boston Center
01:44PM 42.4256 -73.8156 180° South 421 484 28,000  Level Boston Center
01:45PM 42.3086 -73.8158 180° South 421 484 28,000  Level Boston Center
01:46PM 42.2003 -73.8161 180° South 427 491 28,000 -300 Level Boston Center
01:47PM 42.0836 -73.8192 181° South 427 491 27,500 -960 Descending Boston Center
01:48PM 41.9669 -73.8222 181° South 422 486 26,100 -2,040 Descending Boston Center
01:50PM 41.6947 -73.8242 180° South 400 460 20,600 -1,860 Descending New York Center
01:51PM 41.6017 -73.8781 203° Southwest 368 423 20,000 -300 Descending New York Center
01:52PM 41.5122 -73.9544 213° Southwest 357 411 20,000  Level New York Center
01:53PM 41.4292 -74.0278 214° Southwest 362 417 20,000  Level New York Center
01:54PM 41.3342 -74.0728 200° South 368 423 20,000  Level New York Center
01:55PM 41.2253 -74.0897 187° South 373 429 20,000  Level New York Center
01:56PM 41.1208 -74.1064 187° South 379 436 20,000 -360 Level New York Center
01:57PM 41.0183 -74.1208 186° South 379 436 19,300 -540 Descending New York Center
01:58PM 40.9289 -74.1164 178° South 367 422 19,000 -840 Descending New York Center
01:59PM 40.8344 -74.0622 157° South 345 397 17,700 -1,560 Descending New York Center
02:00PM 40.7461 -74.0225 161° South 338 389 16,000 -1,620 Descending New York Center
02:01PM 40.6617 -73.9800 159° South 338 389 14,500 -1,500 Descending New York Center
02:02PM 40.5667 -73.9333 160° South 321 369 12,800 -1,680 Descending New York TRACON
02:03PM 40.4833 -73.9000 163° South 311 358 10,900 -1,620 Descending New York TRACON
02:04PM 40.4000 -73.8500 155° Southeast 297 342 9,600 -1,500 Descending New York TRACON
02:05PM 40.3333 -73.8167 159° South 292 336 8,000 -900 Descending New York TRACON
02:07PM 40.3167 -73.6333 97° East 318 366 7,000 -360 Descending New York TRACON
02:08PM 40.4000 -73.5833 25° Northeast 299 344 7,000  Level New York TRACON
02:09PM 40.4667 -73.5500 21° North 299 344 7,000 -60 Level New York TRACON
02:10PM 40.5333 -73.5000 30° Northeast 275 316 6,900 -600 Descending New York TRACON
02:11PM 40.6000 -73.4500 30° Northeast 256 295 5,900 -960 Descending New York TRACON
02:12PM 40.6667 -73.4000 30° Northeast 256 295 5,000 -720 Descending New York TRACON
02:13PM 40.7167 -73.3833 14° North 243 280 4,500 -840 Descending New York TRACON
02:14PM 40.7833 -73.4167 339° North 221 254 3,400 -780 Descending New York TRACON
02:15PM 40.8333 -73.4500 333° Northwest 220 253 3,000 -300 Descending New York TRACON
02:16PM 40.8667 -73.5000 311° West 204 235 2,900 -540 Descending New York TRACON
02:17PM 40.8667 -73.5500 270° West 160 184 2,000 -480 Descending New York TRACON
02:18PM 40.8500 -73.6000 246° West 140 161 2,000  Level New York TRACON
02:19PM 40.8167 -73.6333 217° Southwest 139 160 2,000  Level New York TRACON
02:20PM 40.7833 -73.6500 201° Southwest 139 160 2,000  Level New York TRACON
02:21PM 40.7500 -73.6833 217° Southwest 139 160 2,000 -300 Level New York TRACON
02:22PM 40.7167 -73.7000 201° Southwest 137 158 1,400 -660 Descending New York TRACON
02:23PM 40.6667 -73.7333 207° Southwest 132 152 700 -660 Descending New York TRACON